createdAt,value
2018-09-21T00:02:27.775Z,65.37
2018-09-21T00:04:56.312Z,65.08
2018-09-21T00:07:24.730Z,64.95
2018-09-21T00:09:53.131Z,64.92
2018-09-21T00:12:21.582Z,65.50
2018-09-21T00:14:49.974Z,65.64
2018-09-21T00:17:18.350Z,65.17
2018-09-21T00:19:46.743Z,65.12
2018-09-21T00:22:15.131Z,66.38
2018-09-21T00:24:43.780Z,65.72
2018-09-21T00:27:12.896Z,66.11
2018-09-21T00:29:41.317Z,65.54
2018-09-21T00:32:10.088Z,66.53
2018-09-21T00:34:38.494Z,66.45
2018-09-21T00:37:07.920Z,66.45
2018-09-21T00:39:36.511Z,66.04
2018-09-21T00:42:05.400Z,66.51
2018-09-21T00:44:33.792Z,66.43
2018-09-21T00:47:02.260Z,66.97
2018-09-21T00:49:30.793Z,67.52
2018-09-21T00:51:59.217Z,67.31
2018-09-21T00:54:27.608Z,66.55
2018-09-21T00:56:56.044Z,67.65
2018-09-21T00:59:24.479Z,67.37
2018-09-21T01:01:53.627Z,68.50
2018-09-21T01:04:22.210Z,68.19
2018-09-21T01:06:51.428Z,67.93
2018-09-21T01:09:19.851Z,67.58
2018-09-21T01:11:48.284Z,68.34
2018-09-21T01:14:16.663Z,67.77
2018-09-21T01:16:45.099Z,67.82
2018-09-21T01:19:13.766Z,67.63
2018-09-21T01:21:42.210Z,67.58
2018-09-21T01:24:10.668Z,66.95
2018-09-21T01:26:39.716Z,67.77
2018-09-21T01:29:08.114Z,66.64
2018-09-21T01:31:36.575Z,66.86
2018-09-21T01:34:04.904Z,66.52
2018-09-21T01:36:33.533Z,66.47
2018-09-21T01:39:02.123Z,66.97
2018-09-21T01:41:30.564Z,65.83
2018-09-21T01:43:58.951Z,66.03
2018-09-21T01:46:27.610Z,66.60
2018-09-21T01:48:57.100Z,66.08
2018-09-21T01:51:25.518Z,65.99
2018-09-21T01:53:54.074Z,66.04
2018-09-21T01:56:22.548Z,66.19
2018-09-21T01:58:51.587Z,65.93
2018-09-21T02:01:20.038Z,66.22
2018-09-21T02:03:48.461Z,66.62
2018-09-21T02:06:16.882Z,66.24
2018-09-21T02:08:45.614Z,66.63
2018-09-21T02:11:14.532Z,66.64
2018-09-21T02:13:44.682Z,67.21
2018-09-21T02:16:13.876Z,67.46
2018-09-21T02:18:42.364Z,67.54
2018-09-21T02:21:10.732Z,67.73
2018-09-21T02:23:39.247Z,67.73
2018-09-21T02:26:07.799Z,68.18
2018-09-21T02:28:36.287Z,68.15
2018-09-21T02:31:04.644Z,68.46
2018-09-21T02:33:33.068Z,68.73
2018-09-21T02:36:01.572Z,68.74
2018-09-21T02:38:30.306Z,68.46
2018-09-21T02:40:58.870Z,69.52
2018-09-21T02:43:28.327Z,69.42
2018-09-21T02:45:56.992Z,69.07
2018-09-21T02:48:25.416Z,69.15
2018-09-21T02:50:53.866Z,69.38
2018-09-21T02:53:23.298Z,70.31
2018-09-21T02:55:51.754Z,68.78
2018-09-21T02:58:20.274Z,68.36
2018-09-21T03:00:48.748Z,69.02
2018-09-21T03:03:17.670Z,68.41
2018-09-21T03:05:46.330Z,68.83
2018-09-21T03:08:14.833Z,68.18
2018-09-21T03:10:43.289Z,68.07
2018-09-21T03:13:11.812Z,67.86
2018-09-21T03:15:40.219Z,68.64
2018-09-21T03:18:08.723Z,68.39
2018-09-21T03:20:37.295Z,68.91
2018-09-21T03:23:05.782Z,69.31
2018-09-21T03:25:34.309Z,69.57
2018-09-21T03:28:03.158Z,69.71
2018-09-21T03:30:32.781Z,70.17
2018-09-21T03:33:01.365Z,70.08
2018-09-21T03:35:30.153Z,70.30
2018-09-21T03:37:58.987Z,69.95
2018-09-21T03:40:27.560Z,70.27
2018-09-21T03:42:56.042Z,70.26
2018-09-21T03:45:24.543Z,70.29
2018-09-21T03:47:53.162Z,70.35
2018-09-21T03:50:21.779Z,70.37
2018-09-21T03:52:50.351Z,70.15
2018-09-21T03:55:18.888Z,70.76
2018-09-21T03:57:47.795Z,70.19
2018-09-21T04:00:16.545Z,70.57
2018-09-21T04:02:44.931Z,69.77
2018-09-21T04:05:13.421Z,70.11
2018-09-21T04:07:42.333Z,70.54
2018-09-21T04:10:11.399Z,70.35
2018-09-21T04:12:40.050Z,69.84
2018-09-21T04:15:09.123Z,70.26
2018-09-21T04:17:38.103Z,70.48
2018-09-21T04:20:06.884Z,70.11
2018-09-21T04:22:37.920Z,69.58
2018-09-21T04:25:07.798Z,69.74
2018-09-21T04:27:37.671Z,69.60
2018-09-21T04:30:06.274Z,69.27
2018-09-21T04:32:34.708Z,69.31
2018-09-21T04:35:03.296Z,69.82
2018-09-21T04:37:31.915Z,69.09
2018-09-21T04:40:00.353Z,69.85
2018-09-21T04:42:29.085Z,69.46
2018-09-21T04:44:57.695Z,69.77
2018-09-21T04:47:26.325Z,70.51
2018-09-21T04:49:54.960Z,69.42
2018-09-21T04:52:23.693Z,69.87
2018-09-21T04:54:52.177Z,69.83
2018-09-21T04:57:20.749Z,69.98
2018-09-21T04:59:49.199Z,70.47
2018-09-21T05:02:18.324Z,70.02
2018-09-21T05:04:46.983Z,70.50
2018-09-21T05:07:16.586Z,70.65
2018-09-21T05:09:45.153Z,70.26
2018-09-21T05:12:16.043Z,70.53
2018-09-21T05:14:45.032Z,70.33
2018-09-21T05:17:14.121Z,70.63
2018-09-21T05:19:43.384Z,70.86
2018-09-21T05:22:12.504Z,70.73
2018-09-21T05:24:41.130Z,71.13
2018-09-21T05:27:09.828Z,70.58
2018-09-21T05:29:38.688Z,70.74
2018-09-21T05:32:07.909Z,70.48
2018-09-21T05:34:36.572Z,70.28
2018-09-21T05:37:05.140Z,69.97
2018-09-21T05:39:33.602Z,69.53
2018-09-21T05:42:02.131Z,69.71
2018-09-21T05:44:30.617Z,68.00
2018-09-21T05:46:59.256Z,68.04
2018-09-21T05:49:27.670Z,67.40
2018-09-21T05:51:56.194Z,66.89
2018-09-21T05:54:24.783Z,66.02
2018-09-21T05:56:53.307Z,64.91
2018-09-21T05:59:21.772Z,64.86
2018-09-21T06:01:50.233Z,64.54
2018-09-21T06:04:19.310Z,63.91
2018-09-21T06:06:48.039Z,64.43
2018-09-21T06:09:16.497Z,63.69
2018-09-21T06:11:45.007Z,64.67
2018-09-21T06:14:13.573Z,63.13
2018-09-21T06:16:42.135Z,62.47
2018-09-21T06:19:10.769Z,61.86
2018-09-21T06:21:39.251Z,63.09
2018-09-21T06:24:08.096Z,62.00
2018-09-21T06:26:36.578Z,60.32
2018-09-21T06:29:05.059Z,61.07
2018-09-21T06:31:33.420Z,59.48
2018-09-21T06:34:02.009Z,58.69
2018-09-21T06:36:30.519Z,60.55
2018-09-21T06:38:59.460Z,58.82
2018-09-21T06:41:27.985Z,58.06
2018-09-21T06:43:56.525Z,57.08
2018-09-21T06:46:24.919Z,58.02
2018-09-21T06:48:53.358Z,57.61
2018-09-21T06:51:21.868Z,56.77
2018-09-21T06:53:51.243Z,57.41
2018-09-21T06:56:19.852Z,55.38
2018-09-21T06:58:48.395Z,55.36
2018-09-21T07:01:16.944Z,55.39
2018-09-21T07:03:45.479Z,54.70
2018-09-21T07:06:13.985Z,55.00
2018-09-21T07:08:42.588Z,54.27
2018-09-21T07:11:11.166Z,53.64
2018-09-21T07:13:39.606Z,52.26
2018-09-21T07:16:08.216Z,52.78
2018-09-21T07:18:36.720Z,50.72
2018-09-21T07:21:05.280Z,49.33
2018-09-21T07:23:33.892Z,49.00
2018-09-21T07:26:02.374Z,48.39
2018-09-21T07:28:31.849Z,46.84
2018-09-21T07:31:00.501Z,45.90
2018-09-21T07:33:28.998Z,45.30
2018-09-21T07:35:57.493Z,45.11
2018-09-21T07:38:26.111Z,43.00
2018-09-21T07:40:54.608Z,43.71
2018-09-21T07:43:23.147Z,44.23
2018-09-21T07:45:51.751Z,42.73
2018-09-21T07:48:20.477Z,42.87
2018-09-21T07:50:49.111Z,43.63
2018-09-21T07:53:17.628Z,43.73
2018-09-21T07:55:46.098Z,44.50
2018-09-21T07:58:14.644Z,46.13
2018-09-21T08:00:43.960Z,45.57
2018-09-21T08:03:12.379Z,44.99
2018-09-21T08:05:40.811Z,46.02
2018-09-21T08:08:09.221Z,46.07
2018-09-21T08:10:37.668Z,47.27
2018-09-21T08:13:06.373Z,47.56
2018-09-21T08:15:34.904Z,48.24
2018-09-21T08:18:04.183Z,47.06
2018-09-21T08:20:32.819Z,46.64
2018-09-21T08:23:01.456Z,46.15
2018-09-21T08:25:30.085Z,46.34
2018-09-21T08:27:58.695Z,47.77
2018-09-21T08:30:27.232Z,48.54
2018-09-21T08:32:56.046Z,48.46
2018-09-21T08:35:24.447Z,47.77
2018-09-21T08:37:53.025Z,48.15
2018-09-21T08:40:21.497Z,48.79
2018-09-21T08:42:50.052Z,47.85
2018-09-21T08:45:18.712Z,49.40
2018-09-21T08:47:47.242Z,49.90
2018-09-21T08:50:18.541Z,49.96
2018-09-21T08:52:47.135Z,49.78
2018-09-21T08:55:15.811Z,50.91
2018-09-21T08:57:44.346Z,50.23
2018-09-21T09:00:12.958Z,51.16
2018-09-21T09:02:41.453Z,51.59
2018-09-21T09:05:10.299Z,51.25
2018-09-21T09:07:38.820Z,50.86
2018-09-21T09:10:07.879Z,51.28
2018-09-21T09:12:36.433Z,51.62
2018-09-21T09:15:05.646Z,51.58
2018-09-21T09:17:34.220Z,52.02
2018-09-21T09:20:03.842Z,51.80
2018-09-21T09:22:32.323Z,52.49
2018-09-21T09:25:01.106Z,51.93
2018-09-21T09:27:29.567Z,52.07
2018-09-21T09:29:58.858Z,51.85
2018-09-21T09:32:27.316Z,51.15
2018-09-21T09:34:55.820Z,51.48
2018-09-21T09:37:24.250Z,50.98
2018-09-21T09:39:52.762Z,52.31
2018-09-21T09:42:21.224Z,51.44
2018-09-21T09:44:49.810Z,50.72
2018-09-21T09:47:18.500Z,50.39
2018-09-21T09:49:47.198Z,50.96
2018-09-21T09:52:15.880Z,50.29
2018-09-21T09:54:44.592Z,51.04
2018-09-21T09:57:13.192Z,49.51
2018-09-21T09:59:41.761Z,48.99
2018-09-21T10:02:10.150Z,49.30
2018-09-21T10:04:38.695Z,50.34
2018-09-21T10:07:07.351Z,48.55
2018-09-21T10:09:36.081Z,48.36
2018-09-21T10:12:04.708Z,47.57
2018-09-21T10:14:33.261Z,48.87
2018-09-21T10:17:01.965Z,48.70
2018-09-21T10:19:30.648Z,47.79
2018-09-21T10:21:59.298Z,46.87
2018-09-21T10:24:28.001Z,47.20
2018-09-21T10:26:56.482Z,46.96
2018-09-21T10:29:25.604Z,46.43
2018-09-21T10:31:54.072Z,46.72
2018-09-21T10:34:23.218Z,46.33
2018-09-21T10:36:51.775Z,47.12
2018-09-21T10:39:20.451Z,46.92
2018-09-21T10:41:48.837Z,46.72
2018-09-21T10:44:17.363Z,46.63
2018-09-21T10:46:46.065Z,48.55
2018-09-21T10:49:14.576Z,46.49
2018-09-21T10:51:42.988Z,46.59
2018-09-21T10:54:11.514Z,47.01
2018-09-21T10:56:40.117Z,46.17
2018-09-21T10:59:08.859Z,46.98
2018-09-21T11:01:37.333Z,47.44
2018-09-21T11:04:05.863Z,46.81
2018-09-21T11:06:34.294Z,47.53
2018-09-21T11:09:02.870Z,47.37
2018-09-21T11:11:31.517Z,45.54
2018-09-21T11:14:00.406Z,44.46
2018-09-21T11:16:29.830Z,43.11
2018-09-21T11:18:58.839Z,43.39
2018-09-21T11:21:27.856Z,43.36
2018-09-21T11:23:56.808Z,43.31
2018-09-21T11:26:26.221Z,43.95
2018-09-21T11:28:54.691Z,44.48
2018-09-21T11:31:23.165Z,44.50
2018-09-21T11:33:53.040Z,44.09
2018-09-21T11:36:21.745Z,44.04
2018-09-21T11:38:50.406Z,43.40
2018-09-21T11:41:19.298Z,44.27
2018-09-21T11:43:48.856Z,44.83
2018-09-21T11:46:17.710Z,44.51
2018-09-21T11:48:46.518Z,44.76
2018-09-21T11:51:16.561Z,46.07
2018-09-21T11:53:45.231Z,45.79
2018-09-21T11:56:13.996Z,46.35
2018-09-21T11:58:42.596Z,54.79
2018-09-21T12:01:12.658Z,64.46
2018-09-21T12:03:41.569Z,69.72
2018-09-21T12:06:10.348Z,74.02
2018-09-21T12:08:38.969Z,78.69
2018-09-21T12:11:07.759Z,75.42
2018-09-21T12:13:36.701Z,75.32
2018-09-21T12:16:05.689Z,75.31
2018-09-21T12:18:34.295Z,75.58
2018-09-21T12:21:03.066Z,74.60
2018-09-21T12:23:31.868Z,75.80
2018-09-21T12:26:00.633Z,75.59
2018-09-21T12:28:29.541Z,74.32
2018-09-21T12:30:58.484Z,72.34
2018-09-21T12:33:27.985Z,72.84
2018-09-21T12:35:56.770Z,72.69
2018-09-21T12:38:25.634Z,72.55
2018-09-21T12:40:54.461Z,74.73
2018-09-21T12:43:23.293Z,76.79
2018-09-21T12:45:51.996Z,77.48
2018-09-21T12:48:20.607Z,80.13
2018-09-21T12:50:49.428Z,80.55
2018-09-21T12:53:18.356Z,82.79
2018-09-21T12:55:48.045Z,83.60
2018-09-21T12:58:16.915Z,86.29
2018-09-21T13:00:50.879Z,85.60
2018-09-21T13:03:20.880Z,87.32
2018-09-21T13:05:53.630Z,87.60
2018-09-21T13:08:22.661Z,88.00
2018-09-21T13:10:51.549Z,89.40
2018-09-21T13:13:20.390Z,89.29
2018-09-21T13:15:51.047Z,88.89
2018-09-21T13:18:21.257Z,90.16
2018-09-21T13:20:49.949Z,88.89
2018-09-21T13:23:19.131Z,89.09
2018-09-21T13:25:48.023Z,89.57
2018-09-21T13:28:18.248Z,87.32
2018-09-21T13:30:47.039Z,88.46
2018-09-21T13:33:16.443Z,88.36
2018-09-21T13:35:45.416Z,87.80
2018-09-21T13:38:14.044Z,87.91
2018-09-21T13:40:42.817Z,88.07
2018-09-21T13:43:13.053Z,87.16
2018-09-21T13:45:41.763Z,86.30
2018-09-21T13:48:10.786Z,87.82
2018-09-21T13:50:39.537Z,86.63
2018-09-21T13:53:08.273Z,86.68
2018-09-21T13:55:38.190Z,85.65
2018-09-21T13:58:07.945Z,86.28
2018-09-21T14:00:36.677Z,86.46
2018-09-21T14:03:05.422Z,85.72
2018-09-21T14:05:34.301Z,83.33
2018-09-21T14:08:03.608Z,84.19
2018-09-21T14:10:32.253Z,84.65
2018-09-21T14:13:01.125Z,84.52
2018-09-21T14:15:29.929Z,84.05
2018-09-21T14:17:59.108Z,82.81
2018-09-21T14:20:27.717Z,83.35
2018-09-21T14:22:56.531Z,83.34
2018-09-21T14:25:25.228Z,84.36
2018-09-21T14:27:53.975Z,85.84
2018-09-21T14:30:22.757Z,86.58
2018-09-21T14:32:52.014Z,85.82
2018-09-21T14:35:21.043Z,87.45
2018-09-21T14:37:49.717Z,86.37
2018-09-21T14:40:19.119Z,85.60
2018-09-21T14:42:48.162Z,85.20
2018-09-21T14:45:17.305Z,85.53
2018-09-21T14:47:46.032Z,86.51
2018-09-21T14:50:14.885Z,87.14
2018-09-21T14:52:43.628Z,85.73
2018-09-21T14:55:12.582Z,86.65
2018-09-21T14:57:41.259Z,86.06
2018-09-21T15:00:10.044Z,86.84
2018-09-21T15:02:39.259Z,85.24
2018-09-21T15:05:08.124Z,86.08
2018-09-21T15:07:39.882Z,85.81
2018-09-21T15:10:08.668Z,85.02
2018-09-21T15:12:37.547Z,85.15
2018-09-21T15:15:06.660Z,85.57
2018-09-21T15:17:35.341Z,85.09
2018-09-21T15:20:03.986Z,85.08
2018-09-21T15:22:33.573Z,85.18
2018-09-21T15:25:02.193Z,85.30
2018-09-21T15:27:30.837Z,85.69
2018-09-21T15:29:59.480Z,85.61
2018-09-21T15:32:28.718Z,84.60
2018-09-21T15:34:57.664Z,86.51
2018-09-21T15:37:31.927Z,84.94
2018-09-21T15:40:00.650Z,85.80
2018-09-21T15:42:29.581Z,84.97
2018-09-21T15:44:58.437Z,84.61
2018-09-21T15:47:27.319Z,83.97
2018-09-21T15:49:56.233Z,84.26
2018-09-21T15:52:25.263Z,83.85
2018-09-21T15:54:54.806Z,83.16
2018-09-21T15:57:23.523Z,82.11
2018-09-21T15:59:52.274Z,82.59
2018-09-21T16:02:20.969Z,82.47
2018-09-21T16:04:49.657Z,81.96
2018-09-21T16:07:18.392Z,82.74
2018-09-21T16:09:48.104Z,81.80
2018-09-21T16:12:16.789Z,80.64
2018-09-21T16:14:45.423Z,81.37
2018-09-21T16:17:14.179Z,80.26
2018-09-21T16:19:42.996Z,80.12
2018-09-21T16:22:11.727Z,79.32
2018-09-21T16:24:40.799Z,81.26
2018-09-21T16:27:09.807Z,78.99
2018-09-21T16:29:38.653Z,78.60
2018-09-21T16:32:07.459Z,78.29
2018-09-21T16:34:36.233Z,78.09
2018-09-21T16:37:05.137Z,77.96
2018-09-21T16:39:33.798Z,77.89
2018-09-21T16:42:02.800Z,78.02
2018-09-21T16:44:31.819Z,77.46
2018-09-21T16:47:00.754Z,77.23
2018-09-21T16:49:29.514Z,77.51
2018-09-21T16:51:58.403Z,76.92
2018-09-21T16:54:27.082Z,75.13
2018-09-21T16:56:56.120Z,75.72
2018-09-21T16:59:24.981Z,74.30
2018-09-21T17:01:54.613Z,73.36
2018-09-21T17:04:23.304Z,71.81
2018-09-21T17:06:52.217Z,72.95
2018-09-21T17:09:20.984Z,69.63
2018-09-21T17:11:49.731Z,68.62
2018-09-21T17:14:18.468Z,68.85
2018-09-21T17:16:47.353Z,67.17
2018-09-21T17:19:16.088Z,66.72
2018-09-21T17:21:44.809Z,66.91
2018-09-21T17:24:13.642Z,65.02
2018-09-21T17:26:42.335Z,65.06
2018-09-21T17:29:11.108Z,65.10
2018-09-21T17:31:39.790Z,64.92
2018-09-21T17:34:08.567Z,65.40
2018-09-21T17:36:37.689Z,64.92
2018-09-21T17:39:09.767Z,64.54
2018-09-21T17:41:38.719Z,63.99
2018-09-21T17:44:07.471Z,64.43
2018-09-21T17:46:38.954Z,65.23
2018-09-21T17:49:07.776Z,64.95
2018-09-21T17:51:37.342Z,64.92
2018-09-21T17:54:06.750Z,63.69
2018-09-21T17:56:35.293Z,63.46
2018-09-21T17:59:04.235Z,63.25
2018-09-21T18:01:33.248Z,63.21
2018-09-21T18:04:02.302Z,62.94
2018-09-21T18:06:31.584Z,62.55
2018-09-21T18:09:00.366Z,62.38
2018-09-21T18:11:29.355Z,62.24
2018-09-21T18:13:58.783Z,62.49
2018-09-21T18:16:27.569Z,61.89
2018-09-21T18:18:56.539Z,61.97
2018-09-21T18:21:25.278Z,62.16
2018-09-21T18:23:53.848Z,61.35
2018-09-21T18:26:22.435Z,61.13
2018-09-21T18:28:51.696Z,61.34
2018-09-21T18:31:20.443Z,60.60
2018-09-21T18:33:49.105Z,60.63
2018-09-21T18:36:17.854Z,59.90
2018-09-21T18:38:46.737Z,59.92
2018-09-21T18:41:15.444Z,60.12
2018-09-21T18:43:45.023Z,59.48
2018-09-21T18:46:13.831Z,60.79
2018-09-21T18:48:42.513Z,59.70
2018-09-21T18:51:11.618Z,59.84
2018-09-21T18:53:40.214Z,60.28
2018-09-21T18:56:09.743Z,61.21
2018-09-21T18:58:38.381Z,60.34
2018-09-21T19:01:06.986Z,61.64
2018-09-21T19:03:36.469Z,62.80
2018-09-21T19:06:05.031Z,62.54
2018-09-21T19:08:33.715Z,62.61
2018-09-21T19:11:02.572Z,63.49
2018-09-21T19:13:31.210Z,63.29
2018-09-21T19:16:00.125Z,62.53
2018-09-21T19:21:27.705Z,62.36
2018-09-21T19:23:56.371Z,61.68
2018-09-21T19:26:25.015Z,61.94
2018-09-21T19:28:54.010Z,63.24
2018-09-21T19:31:22.694Z,61.92
2018-09-21T19:33:51.129Z,62.29
2018-09-21T19:36:19.971Z,62.21
2018-09-21T19:38:48.771Z,62.06
2018-09-21T19:41:17.348Z,63.03
2018-09-21T19:43:45.930Z,61.70
2018-09-21T19:46:14.647Z,60.75
2018-09-21T19:48:43.378Z,60.81
2018-09-21T19:51:12.077Z,59.41
2018-09-21T19:53:41.012Z,59.55
2018-09-21T19:56:09.557Z,60.87
2018-09-21T19:58:38.313Z,59.67
2018-09-21T20:01:07.662Z,59.96
2018-09-21T20:03:36.328Z,58.94
2018-09-21T20:06:05.936Z,60.23
2018-09-21T20:08:34.611Z,59.86
2018-09-21T20:11:03.915Z,59.00
2018-09-21T20:13:32.783Z,59.38
2018-09-21T20:16:01.405Z,58.72
2018-09-21T20:18:29.979Z,59.03
2018-09-21T20:20:58.549Z,56.81
2018-09-21T20:23:28.175Z,57.36
2018-09-21T20:25:57.974Z,56.80
2018-09-21T20:28:26.747Z,57.71
2018-09-21T20:31:00.626Z,57.88
2018-09-21T20:33:31.737Z,57.61
2018-09-21T20:36:01.651Z,57.67
2018-09-21T20:38:30.256Z,57.78
2018-09-21T20:40:58.898Z,58.37
2018-09-21T20:43:27.485Z,57.89
2018-09-21T20:45:56.360Z,57.38
2018-09-21T20:48:25.296Z,58.48
2018-09-21T20:50:59.267Z,58.29
2018-09-21T20:53:27.837Z,58.52
2018-09-21T20:55:56.350Z,58.96
2018-09-21T20:58:25.317Z,58.75
2018-09-21T21:00:53.901Z,58.84
2018-09-21T21:03:22.452Z,59.28
2018-09-21T21:05:53.308Z,58.94
2018-09-21T21:08:21.869Z,59.21
2018-09-21T21:10:50.876Z,59.64
2018-09-21T21:13:19.391Z,59.30
2018-09-21T21:15:48.180Z,58.02
2018-09-21T21:18:16.841Z,59.30
2018-09-21T21:20:45.402Z,60.31
2018-09-21T21:23:13.889Z,60.63
2018-09-21T21:25:42.575Z,61.56
2018-09-21T21:28:11.157Z,62.97
2018-09-21T21:30:39.786Z,63.55
2018-09-21T21:33:08.812Z,64.08
2018-09-21T21:35:37.412Z,64.39
2018-09-21T21:38:06.094Z,64.53
2018-09-21T21:40:34.727Z,65.63
2018-09-21T21:43:03.209Z,65.61
2018-09-21T21:45:31.864Z,65.87
2018-09-21T21:48:00.522Z,67.08
2018-09-21T21:50:29.316Z,67.49
2018-09-21T21:52:57.889Z,68.07
2018-09-21T21:55:27.301Z,67.63
2018-09-21T21:57:56.313Z,69.17
2018-09-21T22:00:29.117Z,69.24
2018-09-21T22:02:57.811Z,68.32
2018-09-21T22:05:26.403Z,69.47
2018-09-21T22:07:55.298Z,68.82
2018-09-21T22:10:24.627Z,70.07
2018-09-21T22:12:58.596Z,70.07
2018-09-21T22:15:27.105Z,71.36
2018-09-21T22:17:55.731Z,70.47
2018-09-21T22:20:24.932Z,70.72
2018-09-21T22:22:53.500Z,71.33
2018-09-21T22:25:22.160Z,71.17
2018-09-21T22:27:50.811Z,70.51
2018-09-21T22:30:19.413Z,70.90
2018-09-21T22:32:47.948Z,71.19
2018-09-21T22:35:16.424Z,71.21
2018-09-21T22:37:44.920Z,71.03
2018-09-21T22:40:13.291Z,70.75
2018-09-21T22:43:12.185Z,70.99
2018-09-21T22:45:40.944Z,70.92
2018-09-21T22:48:09.742Z,72.00
2018-09-21T22:50:38.210Z,72.71
2018-09-21T22:53:06.780Z,73.84
2018-09-21T22:55:35.386Z,75.23
2018-09-21T22:58:04.050Z,75.50
2018-09-21T23:00:32.579Z,75.99
2018-09-21T23:03:01.117Z,76.88
2018-09-21T23:05:29.609Z,79.25
2018-09-21T23:07:58.118Z,78.40
2018-09-21T23:10:26.849Z,78.62
2018-09-21T23:12:55.464Z,78.81
2018-09-21T23:15:23.970Z,79.21
2018-09-21T23:17:52.584Z,79.16
2018-09-21T23:20:21.111Z,79.30
2018-09-21T23:22:49.685Z,79.96
2018-09-21T23:25:18.303Z,79.38
2018-09-21T23:27:46.844Z,79.97
2018-09-21T23:30:15.493Z,79.50
2018-09-21T23:32:44.092Z,80.08
2018-09-21T23:35:12.661Z,80.48
2018-09-21T23:37:41.212Z,79.67
2018-09-21T23:40:09.788Z,79.97
2018-09-21T23:42:38.378Z,80.30
2018-09-21T23:45:07.197Z,82.38
2018-09-21T23:47:35.677Z,81.09
2018-09-21T23:50:04.433Z,79.62
2018-09-21T23:52:32.957Z,79.35
2018-09-21T23:55:01.536Z,78.52
2018-09-21T23:57:30.119Z,79.68
2018-09-21T23:59:58.825Z,76.97
